KDUJ/DUJ METAR and TAF weather

Enter ICAO airport designator
Station Type Date Time Source
KDUJ METAR 2022/06/30 00:53 UTC NOAA

KDUJ 300053Z AUTO 27003KT 10SM CLR 21/10 A3024 RMK AO2 SLP230 T02110100


Station Type Date Time Source
KDUJ Decoded METAR 2022/06/30 00:53 UTC NOAA

DU BOIS-JEFFERSON COUNTY, PA, United States (KDUJ) 41-11N 078-53W
Jun 29, 2022 - 08:53 PM EDT / 2022.06.30 0053 UTC
Wind: from the W (270 degrees) at 3 MPH (3 KT):0
Visibility: 10 mile(s):0
Sky conditions: clear
Temperature: 70.0 F (21.1 C)
Dew Point: 50.0 F (10.0 C)
Relative Humidity: 49%
Pressure (altimeter): 30.24 in. Hg (1024 hPa)
ob: KDUJ 300053Z AUTO 27003KT 10SM CLR 21/10 A3024 RMK AO2 SLP230 T02110100
cycle: 1

Station Type Date Time Source
KDUJ TAF 2022/06/29 18:22 UTC NOAA

TAF KDUJ 291720Z 2918/3018 26008KT P6SM BKN200
FM300200 29003KT P6SM SKC
FM301400 24004KT P6SM SKC

Example: see airport list